Zell Am See, Austria
Current Conditions -  °F | °C
As of 1:20 PM on Sunday 23 Nov 2014 (Local Time) from LOWS Reporting Station
Moderate Fog Moderate Fog  
Wind Chill: 39°   Ceiling: 200
Heat Index: 39°   Visibility: 0.5mi
Dew Point: 39°   Wind: 3mph
Humidity: 100%   Direction: 300°WNW
Pressure: 30.24"   Gusts: NA
Location:  47.32°N, 12.78°E
Report Text: LOWS 231120Z 30003KT 270V340 0800 R15/1100N R33/1000D FG OVC002 04/04 Q1024 NOSIG
Loading
Personal Weather Stations






























Interactive Weather Map New forecast layout! Learn more

10-Day Weather Forecast

Advertisements
Track Severe Weather on mobile